createdAt,value
2017-06-19T00:00:36.879Z,15.38
2017-06-19T00:03:03.586Z,14.20
2017-06-19T00:05:30.260Z,14.25
2017-06-19T00:07:57.124Z,16.23
2017-06-19T00:10:23.806Z,14.63
2017-06-19T00:12:50.488Z,15.20
2017-06-19T00:15:17.171Z,15.05
2017-06-19T00:17:43.857Z,15.82
2017-06-19T00:20:10.547Z,15.50
2017-06-19T00:22:42.864Z,14.45
2017-06-19T00:25:09.561Z,15.80
2017-06-19T00:27:36.233Z,15.63
2017-06-19T00:30:02.911Z,15.95
2017-06-19T00:32:29.592Z,16.42
2017-06-19T00:34:56.294Z,15.45
2017-06-19T00:37:22.967Z,16.52
2017-06-19T00:39:49.672Z,16.10
2017-06-19T00:42:16.361Z,16.87
2017-06-19T00:44:43.069Z,16.52
2017-06-19T00:47:09.749Z,15.57
2017-06-19T00:49:36.441Z,15.73
2017-06-19T00:52:03.120Z,17.08
2017-06-19T00:54:29.797Z,17.15
2017-06-19T00:56:56.484Z,16.52
2017-06-19T00:59:23.164Z,16.42
2017-06-19T01:01:49.841Z,18.42
2017-06-19T01:04:16.520Z,16.87
2017-06-19T01:06:43.197Z,16.30
2017-06-19T01:09:09.872Z,16.45
2017-06-19T01:11:36.581Z,16.87
2017-06-19T01:14:03.255Z,19.48
2017-06-19T01:16:29.936Z,16.83
2017-06-19T01:18:56.629Z,16.58
2017-06-19T01:21:23.304Z,16.87
2017-06-19T01:23:49.975Z,16.40
2017-06-19T01:26:16.654Z,17.50
2017-06-19T01:28:43.348Z,16.17
2017-06-19T01:31:10.023Z,18.12
2017-06-19T01:33:36.699Z,17.55
2017-06-19T01:36:03.377Z,17.02
2017-06-19T01:38:30.060Z,17.42
2017-06-19T01:40:56.735Z,16.83
2017-06-19T01:43:23.448Z,18.60
2017-06-19T01:45:50.133Z,17.50
2017-06-19T01:48:16.812Z,17.67
2017-06-19T01:50:43.487Z,17.98
2017-06-19T01:53:10.159Z,17.12
2017-06-19T01:55:36.847Z,20.90
2017-06-19T01:58:03.536Z,18.10
2017-06-19T02:00:30.211Z,18.30
2017-06-19T02:02:56.888Z,21.05
2017-06-19T02:05:23.570Z,18.65
2017-06-19T02:07:50.250Z,18.92
2017-06-19T02:10:16.931Z,19.70
2017-06-19T02:12:43.610Z,18.00
2017-06-19T02:15:10.321Z,20.00
2017-06-19T02:17:37.007Z,18.33
2017-06-19T02:20:03.716Z,18.65
2017-06-19T02:22:30.396Z,19.85
2017-06-19T02:24:57.080Z,20.05
2017-06-19T02:27:23.756Z,21.33
2017-06-19T02:29:50.428Z,19.83
2017-06-19T02:32:17.107Z,22.35
2017-06-19T02:34:43.784Z,19.00
2017-06-19T02:37:10.460Z,18.83
2017-06-19T02:39:37.133Z,19.87
2017-06-19T02:42:03.803Z,22.65
2017-06-19T02:44:30.480Z,20.77
2017-06-19T02:46:57.156Z,20.70
2017-06-19T02:49:23.831Z,22.13
2017-06-19T02:51:50.536Z,21.30
2017-06-19T02:54:17.220Z,23.23
2017-06-19T02:56:43.909Z,21.37
2017-06-19T02:59:10.588Z,19.80
2017-06-19T03:01:37.268Z,23.08
2017-06-19T03:04:03.939Z,21.25
2017-06-19T03:06:30.621Z,22.52
2017-06-19T03:08:57.305Z,21.98
2017-06-19T03:11:23.980Z,22.45
2017-06-19T03:13:50.662Z,21.62
2017-06-19T03:16:17.340Z,22.75
2017-06-19T03:18:44.016Z,20.77
2017-06-19T03:21:10.688Z,21.02
2017-06-19T03:23:37.364Z,20.77
2017-06-19T03:26:04.064Z,22.48
2017-06-19T03:28:30.735Z,20.80
2017-06-19T03:30:57.434Z,21.27
2017-06-19T03:33:24.104Z,20.10
2017-06-19T03:35:50.811Z,21.95
2017-06-19T03:38:17.499Z,21.48
2017-06-19T03:40:44.188Z,21.52
2017-06-19T03:43:10.863Z,21.50
2017-06-19T03:45:37.535Z,20.00
2017-06-19T03:48:04.231Z,21.00
2017-06-19T03:50:30.908Z,19.50
2017-06-19T03:52:57.768Z,21.17
2017-06-19T03:55:24.472Z,18.58
2017-06-19T03:57:51.177Z,20.77
2017-06-19T04:00:17.857Z,20.17
2017-06-19T04:02:44.532Z,21.30
2017-06-19T04:05:11.216Z,21.10
2017-06-19T04:07:37.896Z,21.20
2017-06-19T04:10:04.606Z,19.27
2017-06-19T04:12:31.285Z,19.20
2017-06-19T04:14:57.988Z,20.55
2017-06-19T04:17:24.664Z,19.15
2017-06-19T04:19:51.371Z,19.35
2017-06-19T04:22:18.055Z,19.52
2017-06-19T04:24:44.741Z,18.73
2017-06-19T04:27:11.421Z,18.83
2017-06-19T04:29:38.102Z,17.70
2017-06-19T04:32:05.005Z,17.70
2017-06-19T04:34:31.683Z,17.55
2017-06-19T04:36:58.387Z,17.55
2017-06-19T04:39:25.063Z,17.75
2017-06-19T04:41:51.768Z,19.12
2017-06-19T04:44:18.453Z,17.85
2017-06-19T04:46:45.179Z,16.85
2017-06-19T04:49:11.855Z,16.58
2017-06-19T04:51:38.535Z,15.93
2017-06-19T04:54:05.213Z,15.23
2017-06-19T04:56:31.895Z,15.85
2017-06-19T04:58:58.596Z,14.15
2017-06-19T05:01:25.284Z,14.00
2017-06-19T05:03:51.986Z,14.35
2017-06-19T05:06:18.669Z,13.50
2017-06-19T05:08:45.386Z,13.77
2017-06-19T05:11:12.060Z,16.00
2017-06-19T05:13:38.748Z,13.30
2017-06-19T05:16:05.442Z,12.63
2017-06-19T05:18:32.134Z,12.63
2017-06-19T05:20:58.845Z,11.70
2017-06-19T05:23:25.519Z,11.80
2017-06-19T05:25:52.228Z,11.03
2017-06-19T05:28:18.898Z,10.23
2017-06-19T05:30:45.600Z,10.30
2017-06-19T05:33:12.278Z,10.20
2017-06-19T05:35:38.980Z,10.10
2017-06-19T05:38:05.653Z,10.60
2017-06-19T05:40:32.356Z,10.07
2017-06-19T05:42:59.028Z,9.90
2017-06-19T05:45:25.697Z,8.70
2017-06-19T05:47:52.367Z,8.73
2017-06-19T05:50:19.039Z,8.30
2017-06-19T05:52:45.758Z,8.23
2017-06-19T05:55:12.432Z,9.23
2017-06-19T05:57:39.152Z,8.80
2017-06-19T06:00:05.812Z,7.80
2017-06-19T06:02:32.492Z,8.60
2017-06-19T06:04:59.162Z,7.50
2017-06-19T06:07:25.862Z,7.60
2017-06-19T06:09:52.526Z,7.73
2017-06-19T06:12:19.201Z,7.70
2017-06-19T06:14:45.868Z,7.13
2017-06-19T06:17:12.533Z,7.63
2017-06-19T06:19:39.219Z,7.33
2017-06-19T06:22:05.890Z,7.40
2017-06-19T06:24:32.573Z,8.57
2017-06-19T06:26:59.236Z,8.07
2017-06-19T06:29:25.928Z,7.40
2017-06-19T06:31:52.594Z,7.90
2017-06-19T06:34:19.291Z,8.03
2017-06-19T06:36:45.962Z,7.63
2017-06-19T06:39:12.660Z,7.30
2017-06-19T06:41:39.329Z,7.17
2017-06-19T06:44:05.996Z,7.30
2017-06-19T06:46:32.663Z,6.80
2017-06-19T06:48:59.323Z,7.43
2017-06-19T06:51:26.017Z,7.40
2017-06-19T06:53:52.688Z,7.60
2017-06-19T06:56:19.374Z,6.93
2017-06-19T06:58:46.045Z,6.67
2017-06-19T07:01:12.743Z,7.40
2017-06-19T07:03:39.413Z,7.43
2017-06-19T07:06:06.087Z,7.70
2017-06-19T07:08:32.748Z,7.83
2017-06-19T07:10:59.412Z,7.50
2017-06-19T07:13:26.073Z,7.97
2017-06-19T07:15:52.742Z,7.83
2017-06-19T07:18:19.435Z,7.23
2017-06-19T07:20:46.114Z,7.83
2017-06-19T07:23:12.815Z,7.47
2017-06-19T07:25:39.472Z,7.03
2017-06-19T07:28:06.149Z,8.10
2017-06-19T07:30:32.823Z,7.97
2017-06-19T07:32:59.502Z,7.70
2017-06-19T07:35:26.175Z,8.13
2017-06-19T07:37:52.840Z,7.17
2017-06-19T07:40:19.511Z,7.90
2017-06-19T07:42:46.177Z,7.30
2017-06-19T07:45:12.870Z,7.67
2017-06-19T07:47:39.527Z,7.07
2017-06-19T07:50:06.224Z,6.90
2017-06-19T07:52:32.913Z,7.67
2017-06-19T07:54:59.587Z,7.07
2017-06-19T07:57:26.250Z,7.80
2017-06-19T07:59:52.916Z,7.13
2017-06-19T08:02:19.589Z,8.23
2017-06-19T08:04:46.257Z,7.43
2017-06-19T08:07:12.923Z,6.83
2017-06-19T08:09:39.601Z,6.97
2017-06-19T08:12:06.272Z,7.10
2017-06-19T08:14:32.937Z,7.43
2017-06-19T08:16:59.628Z,6.20
2017-06-19T08:19:26.293Z,6.70
2017-06-19T08:21:58.735Z,6.73
2017-06-19T08:24:25.392Z,7.57
2017-06-19T08:26:52.061Z,7.27
2017-06-19T08:29:18.724Z,6.60
2017-06-19T08:31:45.393Z,6.80
2017-06-19T08:34:12.065Z,6.10
2017-06-19T08:36:38.742Z,5.93
2017-06-19T08:39:05.411Z,6.63
2017-06-19T08:41:32.085Z,6.60
2017-06-19T08:43:58.755Z,6.43
2017-06-19T08:46:25.427Z,6.50
2017-06-19T08:48:52.093Z,7.50
2017-06-19T08:51:18.764Z,6.57
2017-06-19T08:53:45.461Z,6.50
2017-06-19T08:56:12.126Z,6.60
2017-06-19T08:58:38.788Z,6.43
2017-06-19T09:01:05.456Z,6.50
2017-06-19T09:03:32.124Z,6.27
2017-06-19T09:05:58.801Z,6.00
2017-06-19T09:08:25.464Z,6.53
2017-06-19T09:10:52.632Z,7.33
2017-06-19T09:13:19.304Z,6.57
2017-06-19T09:15:45.976Z,6.53
2017-06-19T09:18:12.647Z,6.30
2017-06-19T09:20:39.330Z,6.60
2017-06-19T09:23:06.000Z,6.00
2017-06-19T09:25:32.674Z,6.30
2017-06-19T09:27:59.372Z,6.70
2017-06-19T09:30:26.084Z,6.80
2017-06-19T09:32:52.776Z,7.27
2017-06-19T09:35:19.444Z,6.60
2017-06-19T09:37:46.135Z,7.30
2017-06-19T09:40:12.803Z,6.40
2017-06-19T09:42:39.501Z,7.43
2017-06-19T09:45:06.171Z,7.63
2017-06-19T09:47:32.876Z,7.13
2017-06-19T09:49:59.546Z,7.60
2017-06-19T09:52:26.216Z,7.17
2017-06-19T09:54:52.888Z,7.33
2017-06-19T09:57:19.564Z,6.80
2017-06-19T09:59:46.266Z,7.83
2017-06-19T10:02:13.027Z,6.33
2017-06-19T10:04:39.728Z,8.47
2017-06-19T10:07:06.399Z,8.27
2017-06-19T10:09:33.092Z,7.80
2017-06-19T10:11:59.764Z,7.67
2017-06-19T10:14:26.456Z,7.40
2017-06-19T10:16:53.132Z,6.80
2017-06-19T10:19:19.836Z,7.17
2017-06-19T10:21:46.503Z,7.30
2017-06-19T10:24:13.203Z,7.17
2017-06-19T10:26:39.868Z,7.10
2017-06-19T10:29:06.543Z,7.60
2017-06-19T10:31:33.221Z,7.17
2017-06-19T10:33:59.891Z,7.07
2017-06-19T10:36:26.585Z,9.10
2017-06-19T10:38:53.268Z,6.90
2017-06-19T10:41:19.956Z,6.87
2017-06-19T10:43:46.626Z,6.80
2017-06-19T10:46:13.333Z,6.83
2017-06-19T10:48:40.009Z,7.30
2017-06-19T10:51:06.709Z,6.57
2017-06-19T10:53:33.384Z,6.50
2017-06-19T10:56:00.060Z,6.57
2017-06-19T10:58:26.724Z,6.20
2017-06-19T11:00:53.404Z,6.73
2017-06-19T11:03:20.084Z,6.67
2017-06-19T11:05:46.753Z,6.27
2017-06-19T11:08:13.429Z,6.13
2017-06-19T11:10:40.100Z,5.93
2017-06-19T11:13:06.797Z,6.70
2017-06-19T11:15:33.473Z,6.50
2017-06-19T11:18:00.177Z,6.10
2017-06-19T11:20:26.859Z,5.60
2017-06-19T11:22:53.569Z,6.33
2017-06-19T11:38:17.000Z,6.53
2017-06-19T11:40:43.665Z,6.37
2017-06-19T11:43:10.336Z,5.90
2017-06-19T11:45:37.005Z,6.50
2017-06-19T11:48:03.675Z,5.77
2017-06-19T11:50:30.360Z,5.33
2017-06-19T11:52:57.026Z,5.53
2017-06-19T11:55:23.717Z,5.93
2017-06-19T11:57:50.386Z,5.83
2017-06-19T12:00:17.076Z,6.50
2017-06-19T12:02:43.787Z,6.10
2017-06-19T12:05:10.473Z,5.73
2017-06-19T12:07:37.135Z,5.60
2017-06-19T12:10:03.850Z,5.80
2017-06-19T12:12:30.512Z,5.47
2017-06-19T12:14:57.176Z,4.83
2017-06-19T12:17:23.841Z,5.20
2017-06-19T12:19:50.509Z,4.40
2017-06-19T12:22:17.171Z,4.80
2017-06-19T12:24:43.842Z,4.80
2017-06-19T12:27:10.503Z,5.10
2017-06-19T12:29:37.164Z,5.70
2017-06-19T12:32:03.892Z,5.20
2017-06-19T12:34:30.555Z,4.50
2017-06-19T12:36:57.244Z,5.43
2017-06-19T12:39:23.916Z,5.03
2017-06-19T12:41:50.620Z,5.73
2017-06-19T12:44:17.280Z,6.07
2017-06-19T12:46:43.943Z,6.13
2017-06-19T12:49:10.608Z,5.10
2017-06-19T12:51:37.267Z,5.60
2017-06-19T12:54:03.935Z,5.20
2017-06-19T12:56:30.605Z,5.60
2017-06-19T12:58:57.280Z,5.40
2017-06-19T13:01:23.946Z,5.30
2017-06-19T13:03:50.639Z,5.30
2017-06-19T13:06:17.305Z,6.07
2017-06-19T13:08:44.004Z,5.90
2017-06-19T13:11:10.667Z,5.63
2017-06-19T13:13:37.336Z,5.17
2017-06-19T13:16:04.000Z,5.00
2017-06-19T13:18:30.667Z,5.03
2017-06-19T13:20:57.332Z,6.30
2017-06-19T13:23:23.997Z,5.70
2017-06-19T13:25:50.695Z,6.20
2017-06-19T13:28:17.356Z,5.87
2017-06-19T13:30:44.048Z,5.17
2017-06-19T13:33:10.715Z,5.60
2017-06-19T13:35:37.392Z,5.57
2017-06-19T13:38:04.056Z,5.93
2017-06-19T13:40:30.720Z,5.53
2017-06-19T13:42:57.411Z,5.50
2017-06-19T13:45:24.072Z,5.77
2017-06-19T13:47:50.736Z,6.13
2017-06-19T13:50:17.402Z,6.23
2017-06-19T13:52:44.074Z,6.40
2017-06-19T13:55:10.744Z,6.20
2017-06-19T13:57:37.437Z,6.40
2017-06-19T14:00:04.108Z,6.10
2017-06-19T14:02:30.815Z,6.43
2017-06-19T14:04:57.483Z,5.70
2017-06-19T14:07:24.147Z,6.40
2017-06-19T14:09:50.812Z,5.97
2017-06-19T14:12:17.483Z,6.53
2017-06-19T14:14:44.148Z,6.00
2017-06-19T14:17:10.845Z,5.73
2017-06-19T14:19:37.501Z,6.50
2017-06-19T14:22:04.161Z,6.67
2017-06-19T14:24:30.855Z,5.80
2017-06-19T14:26:57.520Z,6.60
2017-06-19T14:29:24.211Z,6.30
2017-06-19T14:31:50.876Z,6.73
2017-06-19T14:34:17.586Z,6.67
2017-06-19T14:36:44.255Z,5.93
2017-06-19T14:39:10.916Z,5.97
2017-06-19T14:41:37.576Z,6.77
2017-06-19T14:44:04.244Z,6.87
2017-06-19T14:46:30.909Z,7.20
2017-06-19T14:48:57.576Z,5.93
2017-06-19T14:51:24.245Z,5.97
2017-06-19T14:53:50.930Z,6.17
2017-06-19T14:56:17.616Z,6.40
2017-06-19T14:58:44.275Z,6.57
2017-06-19T15:01:10.969Z,6.73
2017-06-19T15:03:37.653Z,6.63
2017-06-19T15:06:04.318Z,6.10
2017-06-19T15:08:30.980Z,6.00
2017-06-19T15:10:57.641Z,6.03
2017-06-19T15:13:24.312Z,6.03
2017-06-19T15:15:51.133Z,6.57
2017-06-19T15:18:17.795Z,6.37
2017-06-19T15:20:50.245Z,6.13
2017-06-19T15:23:16.915Z,6.50
2017-06-19T15:25:43.580Z,5.97
2017-06-19T15:28:10.236Z,6.23
2017-06-19T15:30:36.900Z,6.60
2017-06-19T15:33:03.592Z,6.03
2017-06-19T15:35:30.255Z,6.83
2017-06-19T15:37:56.951Z,6.30
2017-06-19T15:40:23.611Z,5.93
2017-06-19T15:42:50.280Z,7.23
2017-06-19T15:45:16.973Z,6.20
2017-06-19T15:47:43.639Z,6.80
2017-06-19T15:50:10.304Z,6.00
2017-06-19T15:52:36.960Z,6.50
2017-06-19T15:55:03.626Z,6.20
2017-06-19T15:57:30.308Z,6.73
2017-06-19T15:59:56.977Z,5.63
2017-06-19T16:02:23.640Z,6.80
2017-06-19T16:04:50.309Z,6.50
2017-06-19T16:07:16.993Z,6.57
2017-06-19T16:09:43.684Z,6.13
2017-06-19T16:12:10.352Z,7.10
2017-06-19T16:14:37.043Z,6.70
2017-06-19T16:17:03.707Z,6.80
2017-06-19T16:19:30.380Z,7.30
2017-06-19T16:21:57.057Z,6.67
2017-06-19T16:24:23.723Z,6.80
2017-06-19T16:26:50.389Z,6.60
2017-06-19T16:29:17.052Z,7.03
2017-06-19T16:31:43.715Z,6.80
2017-06-19T16:34:10.371Z,6.63
2017-06-19T16:36:37.047Z,7.20
2017-06-19T16:39:03.707Z,6.93
2017-06-19T16:41:30.371Z,6.80
2017-06-19T16:43:57.036Z,7.43
2017-06-19T16:46:23.707Z,7.30
2017-06-19T16:48:50.364Z,7.20
2017-06-19T16:51:17.031Z,6.40
2017-06-19T16:53:43.719Z,7.53
2017-06-19T16:56:10.393Z,7.60
2017-06-19T16:58:37.095Z,8.00
2017-06-19T17:01:03.760Z,7.87
2017-06-19T17:03:30.456Z,7.20
2017-06-19T17:05:57.116Z,7.37
2017-06-19T17:08:23.800Z,7.53
2017-06-19T17:10:50.459Z,7.67
2017-06-19T17:13:17.124Z,6.77
2017-06-19T17:15:43.791Z,7.00
2017-06-19T17:18:10.458Z,7.60
2017-06-19T17:20:37.144Z,8.03
2017-06-19T17:23:03.812Z,7.13
2017-06-19T17:25:30.502Z,7.20
2017-06-19T17:27:57.164Z,6.90
2017-06-19T17:30:23.855Z,7.77
2017-06-19T17:32:50.522Z,7.43
2017-06-19T17:35:17.238Z,7.07
2017-06-19T17:37:43.908Z,7.03
2017-06-19T17:40:10.579Z,7.60
2017-06-19T17:42:37.260Z,7.10
2017-06-19T17:45:03.924Z,8.37
2017-06-19T17:47:30.592Z,7.10
2017-06-19T17:49:57.256Z,6.80
2017-06-19T17:52:23.915Z,6.77
2017-06-19T17:54:50.573Z,7.13
2017-06-19T17:57:17.264Z,7.10
2017-06-19T17:59:43.932Z,7.60
2017-06-19T18:02:10.617Z,7.27
2017-06-19T18:04:37.324Z,7.63
2017-06-19T18:07:04.015Z,8.17
2017-06-19T18:09:30.683Z,7.50
2017-06-19T18:11:57.347Z,6.90
2017-06-19T18:14:24.005Z,8.30
2017-06-19T18:16:50.683Z,7.33
2017-06-19T18:19:17.344Z,8.10
2017-06-19T18:21:44.022Z,7.07
2017-06-19T18:24:10.705Z,8.27
2017-06-19T18:26:37.365Z,7.40
2017-06-19T18:29:04.051Z,8.17
2017-06-19T18:31:30.724Z,8.20
2017-06-19T18:33:57.396Z,7.40
2017-06-19T18:36:24.068Z,8.60
2017-06-19T18:38:50.751Z,8.53
2017-06-19T18:41:17.416Z,7.93
2017-06-19T18:43:44.080Z,8.53
2017-06-19T18:46:10.752Z,8.73
2017-06-19T18:48:37.429Z,8.40
2017-06-19T18:51:04.152Z,9.30
2017-06-19T18:53:30.823Z,8.30
2017-06-19T18:55:57.488Z,8.47
2017-06-19T18:58:24.156Z,7.57
2017-06-19T19:00:50.829Z,9.17
2017-06-19T19:03:17.500Z,9.70
2017-06-19T19:05:44.167Z,8.87
2017-06-19T19:08:10.840Z,9.07
2017-06-19T19:10:37.504Z,9.00
2017-06-19T19:13:04.181Z,8.50
2017-06-19T19:15:30.849Z,9.20
2017-06-19T19:17:57.515Z,8.40
2017-06-19T19:20:24.184Z,8.93
2017-06-19T19:22:50.876Z,8.63
2017-06-19T19:25:17.547Z,8.70
2017-06-19T19:27:44.257Z,9.50
2017-06-19T19:30:10.936Z,9.07
2017-06-19T19:32:37.608Z,9.73
2017-06-19T19:35:04.285Z,8.67
2017-06-19T19:37:30.953Z,10.00
2017-06-19T19:39:57.625Z,8.80
2017-06-19T19:42:24.295Z,9.20
2017-06-19T19:44:50.975Z,10.90
2017-06-19T19:47:17.648Z,10.77
2017-06-19T19:49:44.361Z,11.10
2017-06-19T19:52:11.032Z,11.30
2017-06-19T19:54:37.695Z,10.73
2017-06-19T19:57:04.431Z,10.33
2017-06-19T19:59:31.101Z,10.53
2017-06-19T20:01:58.065Z,11.10
2017-06-19T20:04:24.748Z,10.30
2017-06-19T20:06:51.419Z,11.83
2017-06-19T20:09:18.095Z,10.97
2017-06-19T20:11:44.806Z,10.00
2017-06-19T20:14:11.475Z,11.00
2017-06-19T20:16:38.148Z,10.70
2017-06-19T20:21:48.657Z,10.90
2017-06-19T20:24:15.328Z,9.63
2017-06-19T20:26:42.005Z,11.00
2017-06-19T20:29:08.713Z,11.87
2017-06-19T20:31:35.388Z,13.00
2017-06-19T20:34:02.072Z,12.10
2017-06-19T20:36:28.782Z,11.73
2017-06-19T20:38:58.098Z,13.47
2017-06-19T20:41:24.769Z,11.73
2017-06-19T20:43:51.473Z,11.97
2017-06-19T20:46:18.152Z,11.40
2017-06-19T20:48:44.860Z,11.67
2017-06-19T20:51:11.540Z,12.07
2017-06-19T20:53:38.211Z,12.97
2017-06-19T20:56:04.896Z,11.17
2017-06-19T20:58:31.569Z,12.33
2017-06-19T21:00:58.246Z,11.27
2017-06-19T21:03:24.937Z,11.83
2017-06-19T21:05:51.609Z,13.13
2017-06-19T21:08:18.285Z,12.93
2017-06-19T21:10:44.961Z,12.03
2017-06-19T21:13:11.647Z,12.50
2017-06-19T21:15:38.333Z,12.00
2017-06-19T21:18:05.012Z,12.40
2017-06-19T21:20:31.698Z,12.53
2017-06-19T21:22:58.373Z,12.80
2017-06-19T21:25:25.077Z,13.03
2017-06-19T21:27:51.760Z,12.43
2017-06-19T21:30:18.436Z,12.90
2017-06-19T21:32:45.133Z,12.73
2017-06-19T21:35:11.813Z,11.83
2017-06-19T21:37:38.484Z,12.77
2017-06-19T21:40:05.165Z,13.80
2017-06-19T21:42:31.852Z,12.88
2017-06-19T21:44:58.532Z,13.17
2017-06-19T21:47:25.220Z,12.13
2017-06-19T21:49:51.893Z,13.10
2017-06-19T21:52:18.608Z,12.63
2017-06-19T21:54:45.301Z,13.50
2017-06-19T21:57:11.988Z,12.35
2017-06-19T21:59:38.673Z,12.98
2017-06-19T22:02:05.364Z,14.10
2017-06-19T22:04:32.059Z,13.45
2017-06-19T22:06:58.736Z,13.75
2017-06-19T22:09:25.431Z,14.23
2017-06-19T22:11:52.122Z,14.73
2017-06-19T22:14:18.816Z,14.18
2017-06-19T22:16:45.504Z,14.65
2017-06-19T22:19:12.212Z,13.48
2017-06-19T22:21:44.715Z,14.30
2017-06-19T22:24:11.424Z,13.93
2017-06-19T22:26:38.123Z,13.52
2017-06-19T22:29:04.813Z,13.62
2017-06-19T22:31:31.501Z,13.82
2017-06-19T22:33:58.190Z,14.02
2017-06-19T22:36:24.877Z,14.05
2017-06-19T22:38:51.577Z,13.40
2017-06-19T22:41:18.268Z,13.93
2017-06-19T22:43:44.953Z,14.23
2017-06-19T22:46:11.669Z,14.57
2017-06-19T22:48:38.365Z,13.80
2017-06-19T22:51:05.054Z,13.55
2017-06-19T22:53:31.741Z,14.73
2017-06-19T22:55:58.432Z,15.02
2017-06-19T22:58:25.144Z,14.60
2017-06-19T23:00:52.476Z,15.18
2017-06-19T23:03:19.193Z,13.77
2017-06-19T23:05:45.885Z,14.75
2017-06-19T23:08:12.598Z,13.65
2017-06-19T23:10:39.287Z,14.48
2017-06-19T23:13:05.978Z,13.95
2017-06-19T23:15:32.693Z,14.68
2017-06-19T23:17:59.376Z,14.60
2017-06-19T23:20:26.136Z,15.18
2017-06-19T23:22:52.834Z,14.90
2017-06-19T23:25:19.564Z,14.35
2017-06-19T23:27:46.247Z,15.70
2017-06-19T23:30:12.961Z,16.15
2017-06-19T23:32:39.652Z,14.87
2017-06-19T23:35:06.374Z,14.48
2017-06-19T23:37:33.061Z,15.15
2017-06-19T23:39:59.741Z,15.57
2017-06-19T23:42:26.424Z,15.20
2017-06-19T23:44:53.115Z,14.43
2017-06-19T23:47:19.822Z,14.87
2017-06-19T23:49:46.525Z,15.50
2017-06-19T23:52:13.232Z,18.70
2017-06-19T23:54:39.973Z,14.40
2017-06-19T23:57:06.682Z,15.60
2017-06-19T23:59:33.360Z,15.50
